Terminal Aerodrome Forecast
Issued by NWS Brownsville, TX

Current Version | Previous Version | Text Only | Print | Product List | Glossary On
Versions: 1 2 3 4 5 6 7 8 9 10 11 12 13 14 15 16 17 18 19 20
000
FTUS44 KBRO 292320
TAFBRO
TAF
KBRO 292320Z 3000/3024 12007KT P6SM FEW028 BKN035 BKN045
      TEMPO 3009/3012 4SM BR
     FM301500 06010KT P6SM SCT030
     FM302100 09012KT P6SM VCSH BKN040=

USA.gov is the U.S. government's official web portal to all federal, state and local government web resources and services.